createdAt,value
2023-02-28T00:00:42.534Z,-0.05
2023-02-28T00:03:20.717Z,-0.07
2023-02-28T00:05:50.684Z,-0.10
2023-02-28T00:08:26.233Z,-0.14
2023-02-28T00:10:55.947Z,-0.17
2023-02-28T00:13:26.893Z,-0.23
2023-02-28T00:16:01.823Z,-0.26
2023-02-28T00:18:32.112Z,-0.31
2023-02-28T00:21:02.607Z,-0.35
2023-02-28T00:23:32.724Z,-0.37
2023-02-28T00:26:03.289Z,-0.37
2023-02-28T00:28:34.199Z,-0.36
2023-02-28T00:31:04.825Z,-0.37
2023-02-28T00:33:35.730Z,-0.36
2023-02-28T00:36:09.898Z,-0.36
2023-02-28T00:38:42.000Z,-0.34
2023-02-28T00:41:11.957Z,-0.31
2023-02-28T00:43:42.040Z,-0.28
2023-02-28T00:46:16.934Z,-0.25
2023-02-28T00:48:46.062Z,-0.21
2023-02-28T00:51:15.872Z,-0.18
2023-02-28T00:53:45.678Z,-0.15
2023-02-28T00:56:15.627Z,-0.11
2023-02-28T00:58:46.144Z,-0.08
2023-02-28T01:01:20.078Z,-0.05
2023-02-28T01:03:49.264Z,-0.03
2023-02-28T01:06:19.294Z,0.02
2023-02-28T01:08:51.058Z,0.06
2023-02-28T01:11:20.473Z,0.07
2023-02-28T01:13:50.345Z,0.08
2023-02-28T01:16:27.366Z,0.09
2023-02-28T01:18:56.890Z,0.10
2023-02-28T01:21:27.474Z,0.09
2023-02-28T01:24:03.867Z,0.08
2023-02-28T01:26:34.450Z,0.06
2023-02-28T01:29:04.468Z,0.03
2023-02-28T01:31:34.138Z,-0.01
2023-02-28T01:34:05.153Z,-0.04
2023-02-28T01:36:34.834Z,-0.06
2023-02-28T01:39:08.389Z,-0.12
2023-02-28T01:41:38.303Z,-0.17
2023-02-28T01:44:47.325Z,-0.19
2023-02-28T01:47:17.067Z,-0.21
2023-02-28T01:49:49.469Z,-0.22
2023-02-28T01:52:21.352Z,-0.22
2023-02-28T01:54:55.083Z,-0.22
2023-02-28T01:57:39.566Z,-0.25
2023-02-28T02:00:15.909Z,-0.26
2023-02-28T02:03:06.446Z,-0.27
2023-02-28T02:05:38.719Z,-0.28
2023-02-28T02:08:37.513Z,-0.30
2023-02-28T02:11:14.769Z,-0.32
2023-02-28T02:14:05.804Z,-0.34
2023-02-28T02:16:55.389Z,-0.34
2023-02-28T02:19:57.929Z,-0.34
2023-02-28T02:22:49.084Z,-0.32
2023-02-28T02:25:25.151Z,-0.32
2023-02-28T02:28:33.432Z,-0.33
2023-02-28T02:31:29.869Z,-0.31
2023-02-28T02:34:09.137Z,-0.29
2023-02-28T02:36:53.611Z,-0.26
2023-02-28T02:39:36.270Z,-0.23
2023-02-28T02:42:24.047Z,-0.18
2023-02-28T02:45:27.387Z,-0.12
2023-02-28T02:48:08.639Z,-0.08
2023-02-28T02:50:45.218Z,-0.04
2023-02-28T02:53:19.532Z,0.01
2023-02-28T02:55:55.904Z,0.04
2023-02-28T02:58:30.976Z,0.06
2023-02-28T03:01:29.436Z,0.09
2023-02-28T03:04:04.473Z,0.09
2023-02-28T03:06:38.973Z,0.09
2023-02-28T03:09:08.090Z,0.08
2023-02-28T03:11:40.925Z,0.04
2023-02-28T03:14:56.340Z,0.01
2023-02-28T03:17:28.590Z,-0.01
2023-02-28T03:20:17.050Z,-0.03
2023-02-28T03:23:19.371Z,-0.05
2023-02-28T03:26:04.552Z,-0.05
2023-02-28T03:29:18.390Z,-0.05
2023-02-28T03:32:29.859Z,-0.06
2023-02-28T03:35:12.753Z,-0.10
2023-02-28T03:37:47.408Z,-0.11
2023-02-28T03:40:28.214Z,-0.10
2023-02-28T03:43:09.774Z,-0.11
2023-02-28T03:45:44.326Z,-0.11
2023-02-28T03:48:27.958Z,-0.12
2023-02-28T03:51:01.326Z,-0.14
2023-02-28T03:53:36.121Z,-0.14
2023-02-28T03:56:15.863Z,-0.15
2023-02-28T03:59:13.559Z,-0.14
2023-02-28T04:01:49.956Z,-0.10
2023-02-28T04:04:21.485Z,-0.05
2023-02-28T04:07:14.996Z,0.03
2023-02-28T04:09:45.185Z,0.05
2023-02-28T04:12:15.579Z,0.07
2023-02-28T04:14:44.865Z,0.09
2023-02-28T04:17:14.930Z,0.12
2023-02-28T04:19:45.459Z,0.14
2023-02-28T04:22:15.478Z,0.19
2023-02-28T04:24:45.074Z,0.22
2023-02-28T04:27:17.114Z,0.25
2023-02-28T04:29:46.499Z,0.27
2023-02-28T04:32:16.928Z,0.31
2023-02-28T04:34:47.669Z,0.35
2023-02-28T04:37:17.214Z,0.39
2023-02-28T04:39:47.233Z,0.41
2023-02-28T04:42:17.315Z,0.42
2023-02-28T04:44:48.901Z,0.42
2023-02-28T04:47:18.751Z,0.41
2023-02-28T04:49:49.413Z,0.40
2023-02-28T04:52:19.875Z,0.38
2023-02-28T04:54:50.717Z,0.36
2023-02-28T04:57:20.844Z,0.34
2023-02-28T04:59:51.123Z,0.29
2023-02-28T05:02:21.679Z,0.25
2023-02-28T05:04:50.901Z,0.22
2023-02-28T05:07:21.151Z,0.19
2023-02-28T05:09:50.422Z,0.16
2023-02-28T05:12:20.492Z,0.13
2023-02-28T05:14:49.992Z,0.10
2023-02-28T05:17:19.486Z,0.08
2023-02-28T05:19:54.581Z,0.06
2023-02-28T05:22:26.335Z,0.05
2023-02-28T05:24:57.058Z,0.02
2023-02-28T05:27:44.616Z,-0.01
2023-02-28T05:30:15.693Z,-0.02
2023-02-28T05:32:45.622Z,-0.01
2023-02-28T05:35:17.758Z,0.01
2023-02-28T05:37:47.283Z,0.03
2023-02-28T05:40:23.261Z,0.02
2023-02-28T05:42:53.278Z,0.04
2023-02-28T05:45:23.490Z,0.06
2023-02-28T05:47:56.109Z,0.10
2023-02-28T05:50:26.594Z,0.13
2023-02-28T05:52:55.957Z,0.18
2023-02-28T05:55:26.470Z,0.21
2023-02-28T05:57:57.461Z,0.27
2023-02-28T06:00:26.861Z,0.32
2023-02-28T06:02:59.465Z,0.36
2023-02-28T06:05:29.863Z,0.41
2023-02-28T06:07:59.654Z,0.45
2023-02-28T06:10:29.338Z,0.49
2023-02-28T06:13:04.047Z,0.51
2023-02-28T06:15:36.979Z,0.55
2023-02-28T06:18:07.254Z,0.59
2023-02-28T06:20:37.799Z,0.64
2023-02-28T06:23:08.754Z,0.68
2023-02-28T06:25:38.492Z,0.72
2023-02-28T06:28:08.817Z,0.78
2023-02-28T06:30:41.772Z,0.81
2023-02-28T06:33:13.973Z,0.87
2023-02-28T06:35:48.101Z,0.91
2023-02-28T06:38:19.580Z,0.94
2023-02-28T06:41:01.065Z,0.95
2023-02-28T06:43:33.594Z,0.97
2023-02-28T06:46:06.366Z,0.98
2023-02-28T06:48:37.041Z,1.00
2023-02-28T06:51:11.271Z,1.03
2023-02-28T06:53:40.561Z,1.08
2023-02-28T06:56:13.368Z,1.13
2023-02-28T06:58:43.464Z,1.17
2023-02-28T07:01:15.605Z,1.22
2023-02-28T07:03:57.449Z,1.25
2023-02-28T07:06:39.149Z,1.28
2023-02-28T07:09:09.522Z,1.32
2023-02-28T07:11:39.424Z,1.35
2023-02-28T07:14:09.334Z,1.40
2023-02-28T07:16:39.284Z,1.47
2023-02-28T07:19:09.385Z,1.54
2023-02-28T07:21:40.874Z,1.61
2023-02-28T07:24:11.941Z,1.68
2023-02-28T07:26:41.913Z,1.73
2023-02-28T07:29:11.575Z,1.79
2023-02-28T07:31:41.201Z,1.86
2023-02-28T07:34:10.488Z,1.92
2023-02-28T07:36:41.088Z,1.98
2023-02-28T07:39:12.507Z,2.05
2023-02-28T07:41:44.942Z,2.16
2023-02-28T07:44:15.324Z,2.25
2023-02-28T07:46:45.415Z,2.24
2023-02-28T07:49:15.947Z,2.25
2023-02-28T07:51:46.200Z,2.30
2023-02-28T07:54:16.539Z,2.35
2023-02-28T07:56:46.395Z,2.39
2023-02-28T07:59:17.088Z,2.41
2023-02-28T08:01:46.986Z,2.46
2023-02-28T08:04:16.472Z,2.52
2023-02-28T08:06:46.410Z,2.62
2023-02-28T08:09:16.521Z,2.76
2023-02-28T08:11:46.605Z,2.92
2023-02-28T08:14:16.980Z,3.05
2023-02-28T08:16:46.072Z,3.23
2023-02-28T08:19:17.107Z,3.41
2023-02-28T08:21:46.202Z,3.56
2023-02-28T08:24:16.326Z,3.68
2023-02-28T08:26:46.653Z,3.83
2023-02-28T08:29:18.487Z,4.05
2023-02-28T08:31:48.992Z,4.18
2023-02-28T08:34:18.876Z,4.30
2023-02-28T08:36:48.762Z,4.42
2023-02-28T08:39:19.593Z,4.48
2023-02-28T08:42:02.203Z,4.42
2023-02-28T08:44:37.091Z,4.38
2023-02-28T08:47:06.710Z,4.41
2023-02-28T08:49:39.171Z,4.45
2023-02-28T08:52:09.463Z,4.52
2023-02-28T08:54:39.580Z,4.60
2023-02-28T08:57:09.563Z,4.70
2023-02-28T08:59:39.445Z,4.78
2023-02-28T09:02:13.943Z,4.87
2023-02-28T09:04:49.182Z,4.93
2023-02-28T09:07:18.747Z,4.99
2023-02-28T09:09:55.303Z,5.05
2023-02-28T09:12:27.509Z,5.13
2023-02-28T09:15:01.306Z,5.18
2023-02-28T09:17:31.203Z,5.22
2023-02-28T09:20:01.224Z,5.33
2023-02-28T09:22:30.734Z,5.41
2023-02-28T09:25:03.137Z,5.53
2023-02-28T09:27:33.689Z,5.62
2023-02-28T09:30:03.181Z,5.69
2023-02-28T09:32:32.823Z,5.74
2023-02-28T09:35:03.218Z,5.84
2023-02-28T09:37:33.535Z,5.95
2023-02-28T09:40:05.283Z,6.09
2023-02-28T09:42:35.933Z,6.24
2023-02-28T09:45:27.306Z,6.40
2023-02-28T09:48:05.743Z,6.44
2023-02-28T09:50:37.396Z,6.40
2023-02-28T09:53:29.478Z,6.51
2023-02-28T09:56:12.261Z,6.63
2023-02-28T09:59:08.616Z,6.73
2023-02-28T10:02:05.226Z,6.90
2023-02-28T10:04:56.911Z,7.04
2023-02-28T10:07:56.564Z,7.13
2023-02-28T10:10:58.618Z,7.20
2023-02-28T10:13:34.301Z,7.24
2023-02-28T10:16:13.300Z,7.22
2023-02-28T10:19:07.998Z,7.23
2023-02-28T10:21:50.502Z,7.24
2023-02-28T10:24:33.303Z,7.12
2023-02-28T10:27:17.713Z,6.94
2023-02-28T10:29:54.921Z,6.79
2023-02-28T10:32:31.447Z,6.79
2023-02-28T10:35:19.966Z,6.78
2023-02-28T10:37:54.824Z,6.69
2023-02-28T10:40:24.667Z,6.56
2023-02-28T10:42:58.437Z,6.46
2023-02-28T10:45:31.129Z,6.45
2023-02-28T10:48:02.949Z,6.42
2023-02-28T10:50:55.856Z,6.39
2023-02-28T10:53:28.555Z,6.37
2023-02-28T10:56:19.009Z,6.38
2023-02-28T10:59:02.311Z,6.24
2023-02-28T11:01:32.094Z,6.22
2023-02-28T11:04:04.676Z,6.24
2023-02-28T11:06:36.625Z,6.30
2023-02-28T11:09:23.660Z,6.37
2023-02-28T11:11:57.124Z,6.50
2023-02-28T11:14:31.356Z,6.58
2023-02-28T11:17:25.202Z,6.65
2023-02-28T11:20:16.373Z,6.68
2023-02-28T11:22:47.968Z,6.67
2023-02-28T11:25:37.836Z,6.70
2023-02-28T11:28:34.671Z,6.78
2023-02-28T11:31:17.861Z,6.82
2023-02-28T11:33:57.271Z,6.84
2023-02-28T11:36:30.952Z,6.92
2023-02-28T11:39:06.871Z,7.01
2023-02-28T11:42:03.816Z,7.07
2023-02-28T11:44:48.495Z,6.91
2023-02-28T11:47:27.397Z,6.86
2023-02-28T11:50:36.368Z,6.85
2023-02-28T11:54:01.402Z,6.94
2023-02-28T11:56:51.593Z,6.91
2023-02-28T11:59:30.768Z,6.87
2023-02-28T12:02:59.263Z,6.87
2023-02-28T12:05:48.924Z,6.98
2023-02-28T12:08:45.898Z,7.00
2023-02-28T12:11:41.579Z,7.06
2023-02-28T12:14:30.882Z,7.14
2023-02-28T12:17:06.221Z,7.14
2023-02-28T12:20:24.556Z,7.14
2023-02-28T12:23:41.071Z,7.19
2023-02-28T12:26:40.128Z,7.22
2023-02-28T12:29:25.426Z,7.26
2023-02-28T12:32:39.209Z,7.30
2023-02-28T12:35:11.751Z,7.30
2023-02-28T12:37:51.620Z,7.28
2023-02-28T12:40:44.508Z,7.12
2023-02-28T12:43:16.848Z,7.05
2023-02-28T12:46:19.330Z,6.95
2023-02-28T12:48:53.977Z,6.88
2023-02-28T12:51:31.790Z,6.99
2023-02-28T12:54:25.685Z,7.08
2023-02-28T12:57:36.454Z,7.16
2023-02-28T13:00:48.796Z,7.41
2023-02-28T13:03:29.808Z,7.57
2023-02-28T13:07:01.342Z,7.61
2023-02-28T13:09:32.638Z,7.62
2023-02-28T13:12:18.321Z,7.62
2023-02-28T13:14:50.173Z,7.59
2023-02-28T13:17:27.507Z,7.55
2023-02-28T13:20:02.389Z,7.52
2023-02-28T13:22:36.503Z,7.48
2023-02-28T13:25:26.791Z,7.41
2023-02-28T13:27:58.148Z,7.31
2023-02-28T13:30:52.362Z,7.14
2023-02-28T13:33:29.246Z,7.07
2023-02-28T13:36:26.820Z,7.01
2023-02-28T13:39:06.058Z,6.91
2023-02-28T13:41:35.937Z,6.78
2023-02-28T13:44:39.996Z,6.72
2023-02-28T13:47:34.581Z,6.64
2023-02-28T13:50:27.173Z,6.52
2023-02-28T13:53:15.400Z,6.40
2023-02-28T13:56:26.787Z,6.26
2023-02-28T13:59:23.900Z,6.13
2023-02-28T14:02:25.450Z,6.03
2023-02-28T14:05:18.681Z,5.97
2023-02-28T14:07:54.563Z,5.93
2023-02-28T14:10:32.828Z,5.90
2023-02-28T14:13:27.486Z,5.87
2023-02-28T14:16:02.617Z,5.86
2023-02-28T14:18:39.607Z,5.88
2023-02-28T14:21:14.757Z,5.87
2023-02-28T14:24:23.464Z,5.81
2023-02-28T14:27:15.478Z,5.77
2023-02-28T14:30:06.435Z,5.78
2023-02-28T14:32:52.441Z,5.74
2023-02-28T14:35:44.561Z,5.70
2023-02-28T14:38:22.854Z,5.65
2023-02-28T14:40:58.583Z,5.67
2023-02-28T14:43:30.778Z,5.67
2023-02-28T14:46:22.584Z,5.69
2023-02-28T14:49:33.965Z,5.72
2023-02-28T14:52:20.619Z,5.72
2023-02-28T14:55:04.941Z,5.71
2023-02-28T14:57:43.139Z,5.72
2023-02-28T15:00:23.434Z,5.70
2023-02-28T15:02:55.213Z,5.62
2023-02-28T15:05:29.506Z,5.60
2023-02-28T15:08:18.538Z,5.55
2023-02-28T15:11:03.078Z,5.52
2023-02-28T15:13:57.796Z,5.45
2023-02-28T15:16:41.714Z,5.37
2023-02-28T15:19:30.984Z,5.35
2023-02-28T15:22:18.220Z,5.31
2023-02-28T15:24:54.653Z,5.31
2023-02-28T15:27:34.650Z,5.29
2023-02-28T15:30:18.461Z,5.30
2023-02-28T15:33:06.501Z,5.30
2023-02-28T15:35:37.061Z,5.29
2023-02-28T15:38:29.387Z,5.26
2023-02-28T15:41:00.745Z,5.23
2023-02-28T15:43:38.773Z,5.18
2023-02-28T15:46:14.736Z,5.16
2023-02-28T15:48:58.499Z,5.14
2023-02-28T15:51:38.289Z,5.16
2023-02-28T15:54:16.326Z,5.18
2023-02-28T15:56:55.301Z,5.17
2023-02-28T15:59:31.293Z,5.16
2023-02-28T16:02:05.641Z,5.15
2023-02-28T16:04:35.132Z,5.10
2023-02-28T16:07:06.849Z,5.08
2023-02-28T16:09:39.364Z,5.05
2023-02-28T16:12:14.964Z,5.03
2023-02-28T16:14:48.447Z,5.00
2023-02-28T16:17:31.219Z,4.97
2023-02-28T16:20:36.646Z,4.92
2023-02-28T16:23:09.984Z,4.86
2023-02-28T16:25:43.938Z,4.80
2023-02-28T16:28:34.980Z,4.72
2023-02-28T16:31:08.085Z,4.62
2023-02-28T16:33:41.899Z,4.53
2023-02-28T16:36:30.837Z,4.45
2023-02-28T16:39:00.266Z,4.34
2023-02-28T16:41:31.226Z,4.26
2023-02-28T16:44:02.478Z,4.18
2023-02-28T16:46:38.167Z,4.10
2023-02-28T16:49:14.649Z,4.04
2023-02-28T16:51:44.619Z,3.97
2023-02-28T16:54:14.424Z,3.91
2023-02-28T16:56:48.635Z,3.85
2023-02-28T16:59:24.926Z,3.76
2023-02-28T17:01:55.776Z,3.68
2023-02-28T17:04:26.861Z,3.62
2023-02-28T17:06:57.005Z,3.58
2023-02-28T17:09:41.269Z,3.51
2023-02-28T17:12:12.727Z,3.43
2023-02-28T17:14:41.993Z,3.40
2023-02-28T17:17:22.923Z,3.36
2023-02-28T17:19:53.531Z,3.33
2023-02-28T17:22:27.275Z,3.29
2023-02-28T17:24:57.153Z,3.21
2023-02-28T17:27:28.570Z,3.20
2023-02-28T17:29:58.998Z,3.20
2023-02-28T17:32:29.519Z,3.21
2023-02-28T17:35:00.797Z,3.21
2023-02-28T17:37:30.367Z,3.17
2023-02-28T17:40:00.790Z,3.16
2023-02-28T17:42:30.294Z,3.16
2023-02-28T17:45:00.274Z,3.15
2023-02-28T17:47:29.618Z,3.15
2023-02-28T17:49:59.809Z,3.14
2023-02-28T17:52:30.909Z,3.11
2023-02-28T17:55:07.562Z,3.05
2023-02-28T17:57:37.293Z,2.99
2023-02-28T18:00:08.166Z,2.96
2023-02-28T18:02:41.472Z,2.91
2023-02-28T18:05:15.982Z,2.84
2023-02-28T18:07:46.002Z,2.77
2023-02-28T18:10:22.540Z,2.72
2023-02-28T18:12:53.770Z,2.65
2023-02-28T18:15:24.118Z,2.57
2023-02-28T18:17:53.496Z,2.46
2023-02-28T18:20:24.521Z,2.34
2023-02-28T18:22:54.431Z,2.28
2023-02-28T18:25:26.784Z,2.24
2023-02-28T18:27:58.980Z,2.24
2023-02-28T18:30:34.001Z,2.24
2023-02-28T18:33:05.238Z,2.24
2023-02-28T18:35:37.760Z,2.20
2023-02-28T18:38:17.077Z,2.21
2023-02-28T18:41:08.799Z,2.24
2023-02-28T18:43:40.770Z,2.26
2023-02-28T18:46:13.514Z,2.29
2023-02-28T18:48:44.273Z,2.30
2023-02-28T18:51:20.234Z,2.31
2023-02-28T18:53:52.075Z,2.28
2023-02-28T18:56:25.628Z,2.25
2023-02-28T18:58:55.242Z,2.19
2023-02-28T19:01:31.524Z,2.10
2023-02-28T19:04:03.881Z,2.08
2023-02-28T19:06:34.873Z,2.04
2023-02-28T19:09:04.809Z,2.00
2023-02-28T19:11:36.658Z,1.96
2023-02-28T19:14:06.434Z,1.92
2023-02-28T19:16:36.699Z,1.87
2023-02-28T19:19:07.071Z,1.81
2023-02-28T19:21:37.055Z,1.76
2023-02-28T19:24:07.098Z,1.70
2023-02-28T19:26:37.234Z,1.63
2023-02-28T19:29:07.203Z,1.55
2023-02-28T19:31:38.679Z,1.46
2023-02-28T19:34:08.643Z,1.40
2023-02-28T19:36:39.111Z,1.34
2023-02-28T19:39:09.733Z,1.29
2023-02-28T19:41:40.230Z,1.20
2023-02-28T19:44:11.490Z,1.13
2023-02-28T19:46:40.962Z,1.08
2023-02-28T19:49:10.248Z,1.02
2023-02-28T19:51:44.284Z,0.94
2023-02-28T19:54:14.165Z,0.91
2023-02-28T19:56:44.516Z,0.89
2023-02-28T19:59:21.458Z,0.86
2023-02-28T20:01:57.030Z,0.85
2023-02-28T20:04:28.221Z,0.84
2023-02-28T20:06:58.702Z,0.83
2023-02-28T20:09:33.124Z,0.84
2023-02-28T20:12:09.272Z,0.85
2023-02-28T20:14:45.221Z,0.84
2023-02-28T20:17:17.761Z,0.79
2023-02-28T20:19:47.377Z,0.77
2023-02-28T20:22:17.358Z,0.78
2023-02-28T20:24:48.644Z,0.79
2023-02-28T20:27:18.918Z,0.80
2023-02-28T20:29:49.348Z,0.82
2023-02-28T20:32:18.920Z,0.85
2023-02-28T20:34:49.109Z,0.85
2023-02-28T20:37:18.471Z,0.82
2023-02-28T20:39:50.217Z,0.81
2023-02-28T20:42:22.613Z,0.77
2023-02-28T20:44:53.091Z,0.70
2023-02-28T20:47:22.679Z,0.65
2023-02-28T20:49:52.607Z,0.57
2023-02-28T20:52:22.727Z,0.49
2023-02-28T20:54:53.506Z,0.39
2023-02-28T20:57:25.706Z,0.31
2023-02-28T20:59:59.056Z,0.23
2023-02-28T21:02:39.655Z,0.17
2023-02-28T21:05:10.059Z,0.11
2023-02-28T21:07:39.771Z,0.04
2023-02-28T21:10:12.924Z,-0.02
2023-02-28T21:12:43.848Z,-0.07
2023-02-28T21:15:18.925Z,-0.09
2023-02-28T21:17:49.546Z,-0.14
2023-02-28T21:20:22.353Z,-0.17
2023-02-28T21:22:54.344Z,-0.18
2023-02-28T21:25:24.654Z,-0.18
2023-02-28T21:27:56.073Z,-0.16
2023-02-28T21:30:26.303Z,-0.11
2023-02-28T21:32:58.303Z,-0.07
2023-02-28T21:35:30.974Z,-0.03
2023-02-28T21:38:00.373Z,0.02
2023-02-28T21:40:30.409Z,0.00
2023-02-28T21:43:00.451Z,0.02
2023-02-28T21:45:31.619Z,0.01
2023-02-28T21:48:05.689Z,0.01
2023-02-28T21:50:35.070Z,0.01
2023-02-28T21:53:04.710Z,-0.01
2023-02-28T21:55:35.733Z,-0.04
2023-02-28T21:58:05.613Z,-0.05
2023-02-28T22:00:36.070Z,-0.09
2023-02-28T22:03:06.170Z,-0.13
2023-02-28T22:05:36.193Z,-0.17
2023-02-28T22:08:07.199Z,-0.22
2023-02-28T22:10:36.976Z,-0.26
2023-02-28T22:13:16.221Z,-0.31
2023-02-28T22:15:47.066Z,-0.35
2023-02-28T22:18:17.307Z,-0.40
2023-02-28T22:20:57.551Z,-0.47
2023-02-28T22:23:26.870Z,-0.51
2023-02-28T22:25:58.080Z,-0.52
2023-02-28T22:28:30.893Z,-0.54
2023-02-28T22:31:06.483Z,-0.55
2023-02-28T22:33:36.097Z,-0.56
2023-02-28T22:36:09.512Z,-0.59
2023-02-28T22:38:40.331Z,-0.63
2023-02-28T22:41:13.402Z,-0.66
2023-02-28T22:43:44.540Z,-0.70
2023-02-28T22:46:14.273Z,-0.75
2023-02-28T22:48:44.415Z,-0.81
2023-02-28T22:51:20.472Z,-0.85
2023-02-28T22:53:52.412Z,-0.89
2023-02-28T22:56:24.642Z,-0.92
2023-02-28T22:58:57.514Z,-1.00
2023-02-28T23:01:30.910Z,-1.01
2023-02-28T23:04:01.924Z,-0.99
2023-02-28T23:06:38.360Z,-0.97
2023-02-28T23:09:12.222Z,-0.93
2023-02-28T23:11:46.098Z,-0.94
2023-02-28T23:14:18.520Z,-0.99
2023-02-28T23:16:52.088Z,-1.01
2023-02-28T23:19:31.050Z,-1.02
2023-02-28T23:22:03.180Z,-0.99
2023-02-28T23:24:35.697Z,-0.97
2023-02-28T23:27:05.788Z,-0.93
2023-02-28T23:29:36.622Z,-0.91
2023-02-28T23:32:06.831Z,-0.88
2023-02-28T23:34:36.924Z,-0.88
2023-02-28T23:37:06.726Z,-0.87
2023-02-28T23:39:36.918Z,-0.87
2023-02-28T23:42:06.774Z,-0.87
2023-02-28T23:44:41.038Z,-0.86
2023-02-28T23:47:14.453Z,-0.87
2023-02-28T23:49:48.904Z,-0.89
2023-02-28T23:52:22.341Z,-0.94
2023-02-28T23:54:54.580Z,-1.03
2023-02-28T23:57:23.993Z,-1.10
2023-02-28T23:59:55.739Z,-1.15
